createdAt,value
2018-05-08T00:00:14.188Z,5.00
2018-05-08T00:02:42.488Z,3.70
2018-05-08T00:05:10.774Z,4.15
2018-05-08T00:07:39.102Z,4.58
2018-05-08T00:10:07.430Z,5.00
2018-05-08T00:12:35.734Z,4.85
2018-05-08T00:15:04.067Z,4.35
2018-05-08T00:17:32.339Z,4.67
2018-05-08T00:20:00.638Z,4.50
2018-05-08T00:22:28.962Z,3.98
2018-05-08T00:24:56.518Z,5.95
2018-05-08T00:27:24.781Z,5.17
2018-05-08T00:29:53.073Z,4.60
2018-05-08T00:32:21.326Z,4.50
2018-05-08T00:34:49.617Z,4.05
2018-05-08T00:37:17.870Z,4.33
2018-05-08T00:39:45.407Z,4.60
2018-05-08T00:42:13.658Z,4.97
2018-05-08T00:44:41.998Z,4.70
2018-05-08T00:47:10.277Z,5.35
2018-05-08T00:49:38.599Z,5.22
2018-05-08T00:52:06.858Z,5.62
2018-05-08T00:54:43.481Z,5.15
2018-05-08T00:57:11.778Z,6.45
2018-05-08T00:59:40.078Z,4.70
2018-05-08T01:02:08.375Z,5.40
2018-05-08T01:04:36.635Z,4.85
2018-05-08T01:07:04.946Z,4.80
2018-05-08T01:09:33.254Z,5.40
2018-05-08T01:12:01.554Z,4.53
2018-05-08T01:14:29.890Z,5.20
2018-05-08T01:16:58.146Z,4.97
2018-05-08T01:19:26.524Z,4.95
2018-05-08T01:21:54.792Z,6.12
2018-05-08T01:24:23.090Z,5.17
2018-05-08T01:26:51.378Z,5.12
2018-05-08T01:29:19.689Z,4.60
2018-05-08T01:31:47.963Z,5.12
2018-05-08T01:34:16.266Z,4.67
2018-05-08T01:36:44.550Z,4.58
2018-05-08T01:39:12.823Z,4.58
2018-05-08T01:41:41.143Z,5.15
2018-05-08T01:44:09.497Z,4.15
2018-05-08T01:46:37.738Z,4.58
2018-05-08T01:49:06.013Z,4.15
2018-05-08T01:51:34.352Z,4.45
2018-05-08T01:54:02.682Z,4.87
2018-05-08T01:56:30.975Z,4.85
2018-05-08T01:58:59.244Z,4.58
2018-05-08T02:01:27.586Z,4.45
2018-05-08T02:03:55.836Z,4.40
2018-05-08T02:06:24.121Z,4.12
2018-05-08T02:08:52.413Z,4.10
2018-05-08T02:11:20.677Z,4.10
2018-05-08T02:13:48.967Z,4.62
2018-05-08T02:16:17.266Z,3.77
2018-05-08T02:18:45.521Z,5.33
2018-05-08T02:21:13.766Z,4.45
2018-05-08T02:23:42.123Z,4.08
2018-05-08T02:26:10.397Z,5.10
2018-05-08T02:28:38.778Z,4.40
2018-05-08T02:31:07.091Z,4.60
2018-05-08T02:33:35.353Z,5.17
2018-05-08T02:36:03.641Z,4.72
2018-05-08T02:38:31.938Z,4.95
2018-05-08T02:41:00.211Z,4.42
2018-05-08T02:43:28.454Z,4.85
2018-05-08T02:45:56.726Z,4.87
2018-05-08T02:48:24.970Z,4.75
2018-05-08T02:50:53.270Z,5.33
2018-05-08T02:53:21.618Z,4.75
2018-05-08T02:55:49.906Z,4.33
2018-05-08T02:58:18.148Z,4.45
2018-05-08T03:00:46.439Z,4.92
2018-05-08T03:03:14.691Z,4.90
2018-05-08T03:05:42.991Z,4.40
2018-05-08T03:08:11.300Z,4.78
2018-05-08T03:10:39.599Z,4.97
2018-05-08T03:13:07.890Z,5.83
2018-05-08T03:15:36.158Z,4.58
2018-05-08T03:18:04.440Z,4.83
2018-05-08T03:20:32.695Z,5.40
2018-05-08T03:23:01.013Z,5.62
2018-05-08T03:25:29.290Z,5.35
2018-05-08T03:27:57.576Z,4.30
2018-05-08T03:30:25.831Z,5.50
2018-05-08T03:32:54.122Z,5.08
2018-05-08T03:35:22.361Z,5.28
2018-05-08T03:37:50.650Z,5.00
2018-05-08T03:40:19.214Z,4.95
2018-05-08T03:42:47.492Z,4.70
2018-05-08T03:45:15.770Z,4.47
2018-05-08T03:47:44.059Z,4.70
2018-05-08T03:50:12.305Z,4.50
2018-05-08T03:52:40.597Z,4.30
2018-05-08T03:55:09.190Z,4.08
2018-05-08T03:57:37.480Z,4.10
2018-05-08T04:00:05.851Z,4.10
2018-05-08T04:04:50.407Z,4.40
2018-05-08T04:08:21.889Z,4.75
2018-05-08T04:10:50.191Z,4.25
2018-05-08T04:13:18.480Z,3.87
2018-05-08T04:15:46.762Z,3.80
2018-05-08T04:18:15.067Z,4.25
2018-05-08T04:20:43.362Z,3.95
2018-05-08T04:23:11.642Z,4.05
2018-05-08T04:25:39.887Z,3.85
2018-05-08T04:28:08.185Z,4.53
2018-05-08T04:30:36.474Z,4.60
2018-05-08T04:33:04.842Z,4.10
2018-05-08T04:35:33.131Z,4.47
2018-05-08T04:38:01.483Z,3.72
2018-05-08T04:40:29.750Z,4.50
2018-05-08T04:42:58.013Z,4.90
2018-05-08T04:45:26.294Z,5.47
2018-05-08T04:47:54.573Z,5.00
2018-05-08T04:50:22.879Z,4.70
2018-05-08T04:52:51.142Z,4.33
2018-05-08T04:55:19.524Z,4.75
2018-05-08T04:57:47.813Z,5.83
2018-05-08T05:00:16.128Z,5.58
2018-05-08T05:02:44.436Z,5.70
2018-05-08T05:05:12.733Z,6.00
2018-05-08T05:07:41.031Z,5.45
2018-05-08T05:10:09.342Z,5.22
2018-05-08T05:12:37.614Z,5.12
2018-05-08T05:15:05.934Z,5.65
2018-05-08T05:17:34.202Z,5.50
2018-05-08T05:20:02.514Z,5.80
2018-05-08T05:22:30.815Z,7.58
2018-05-08T05:24:59.124Z,6.30
2018-05-08T05:27:27.370Z,7.08
2018-05-08T05:29:55.629Z,7.03
2018-05-08T05:32:23.931Z,6.75
2018-05-08T05:34:52.188Z,6.75
2018-05-08T05:37:20.518Z,7.37
2018-05-08T05:39:48.771Z,9.18
2018-05-08T05:42:17.030Z,6.50
2018-05-08T05:44:44.553Z,7.30
2018-05-08T05:47:12.830Z,6.10
2018-05-08T05:49:41.095Z,6.67
2018-05-08T05:52:09.382Z,5.33
2018-05-08T05:54:37.717Z,5.40
2018-05-08T05:57:05.298Z,5.80
2018-05-08T05:59:33.594Z,5.80
2018-05-08T06:02:01.857Z,5.85
2018-05-08T06:04:30.150Z,5.65
2018-05-08T06:06:58.441Z,5.87
2018-05-08T06:09:26.770Z,4.95
2018-05-08T06:11:55.122Z,5.60
2018-05-08T06:14:23.382Z,4.53
2018-05-08T06:16:51.742Z,4.22
2018-05-08T06:19:20.046Z,4.60
2018-05-08T06:21:48.296Z,4.55
2018-05-08T06:24:16.586Z,4.97
2018-05-08T06:26:44.898Z,5.22
2018-05-08T06:29:13.230Z,5.00
2018-05-08T06:31:41.534Z,4.50
2018-05-08T06:34:09.858Z,4.92
2018-05-08T06:36:38.182Z,5.10
2018-05-08T06:39:06.512Z,4.25
2018-05-08T06:41:34.822Z,3.87
2018-05-08T06:44:03.148Z,3.62
2018-05-08T06:46:31.438Z,3.90
2018-05-08T06:48:59.767Z,4.35
2018-05-08T06:51:28.072Z,3.80
2018-05-08T06:53:56.358Z,3.95
2018-05-08T06:56:24.650Z,3.95
2018-05-08T06:58:52.955Z,4.15
2018-05-08T07:01:21.283Z,4.40
2018-05-08T07:03:49.606Z,3.50
2018-05-08T07:06:17.910Z,3.77
2018-05-08T07:08:46.214Z,3.80
2018-05-08T07:11:14.510Z,3.98
2018-05-08T07:13:42.839Z,3.27
2018-05-08T07:16:11.266Z,3.55
2018-05-08T07:18:39.470Z,3.25
2018-05-08T07:21:07.790Z,3.85
2018-05-08T07:23:36.077Z,3.95
2018-05-08T07:26:04.375Z,3.52
2018-05-08T07:28:32.650Z,3.25
2018-05-08T07:31:00.922Z,3.22
2018-05-08T07:33:29.262Z,2.87
2018-05-08T07:35:57.589Z,2.95
2018-05-08T07:38:25.910Z,3.25
2018-05-08T07:40:54.210Z,2.80
2018-05-08T07:43:22.518Z,3.33
2018-05-08T07:45:50.785Z,3.00
2018-05-08T07:48:19.136Z,3.10
2018-05-08T07:50:48.004Z,2.80
2018-05-08T07:53:16.259Z,3.10
2018-05-08T07:55:44.566Z,3.15
2018-05-08T07:58:12.873Z,2.90
2018-05-08T08:00:41.197Z,3.00
2018-05-08T08:03:09.492Z,2.80
2018-05-08T08:05:37.826Z,3.47
2018-05-08T08:08:06.134Z,3.00
2018-05-08T08:10:34.454Z,2.55
2018-05-08T08:13:02.791Z,2.95
2018-05-08T08:15:31.102Z,2.60
2018-05-08T08:17:59.398Z,3.00
2018-05-08T08:20:27.729Z,2.85
2018-05-08T08:22:56.008Z,3.20
2018-05-08T08:25:24.372Z,2.60
2018-05-08T08:27:52.714Z,2.52
2018-05-08T08:30:20.990Z,2.62
2018-05-08T08:32:49.355Z,2.60
2018-05-08T08:35:17.654Z,2.98
2018-05-08T08:37:45.978Z,2.50
2018-05-08T08:40:14.375Z,3.08
2018-05-08T08:42:42.713Z,3.08
2018-05-08T08:45:11.031Z,3.02
2018-05-08T08:47:39.393Z,2.80
2018-05-08T08:50:07.711Z,2.43
2018-05-08T08:52:36.041Z,2.80
2018-05-08T08:55:04.346Z,2.63
2018-05-08T08:57:32.689Z,2.77
2018-05-08T09:00:01.031Z,2.90
2018-05-08T09:02:29.283Z,2.70
2018-05-08T09:04:57.590Z,2.40
2018-05-08T09:07:25.940Z,2.63
2018-05-08T09:09:54.264Z,2.13
2018-05-08T09:12:22.594Z,2.10
2018-05-08T09:14:51.013Z,2.87
2018-05-08T09:17:19.349Z,2.63
2018-05-08T09:19:47.738Z,2.60
2018-05-08T09:22:15.999Z,2.47
2018-05-08T09:24:44.315Z,2.57
2018-05-08T09:27:12.622Z,2.20
2018-05-08T09:29:40.930Z,2.43
2018-05-08T09:32:09.218Z,2.40
2018-05-08T09:34:37.537Z,2.70
2018-05-08T09:37:05.848Z,2.30
2018-05-08T09:39:34.195Z,2.20
2018-05-08T09:42:02.524Z,2.03
2018-05-08T09:44:30.849Z,1.90
2018-05-08T09:46:59.143Z,2.17
2018-05-08T09:49:27.434Z,2.60
2018-05-08T09:51:55.711Z,2.50
2018-05-08T09:54:24.039Z,2.30
2018-05-08T09:56:52.327Z,2.83
2018-05-08T09:59:20.705Z,2.37
2018-05-08T10:01:49.022Z,2.17
2018-05-08T10:04:17.354Z,2.47
2018-05-08T10:06:45.773Z,2.20
2018-05-08T10:09:14.025Z,2.70
2018-05-08T10:11:42.360Z,3.00
2018-05-08T10:14:10.696Z,2.20
2018-05-08T10:16:39.079Z,2.10
2018-05-08T10:19:07.450Z,2.07
2018-05-08T10:21:35.827Z,2.17
2018-05-08T10:24:04.114Z,2.33
2018-05-08T10:26:32.430Z,2.20
2018-05-08T10:29:00.837Z,2.13
2018-05-08T10:31:29.194Z,2.70
2018-05-08T10:33:57.490Z,2.13
2018-05-08T10:36:25.851Z,2.30
2018-05-08T10:38:54.142Z,2.30
2018-05-08T10:41:22.420Z,2.30
2018-05-08T10:43:50.729Z,2.20
2018-05-08T10:46:19.052Z,1.93
2018-05-08T10:48:47.408Z,2.10
2018-05-08T10:51:15.690Z,2.30
2018-05-08T10:53:43.988Z,1.97
2018-05-08T10:56:12.289Z,2.67
2018-05-08T10:58:40.597Z,2.00
2018-05-08T11:01:08.915Z,1.90
2018-05-08T11:03:37.290Z,1.90
2018-05-08T11:06:05.598Z,2.43
2018-05-08T11:08:34.013Z,2.10
2018-05-08T11:11:02.326Z,2.13
2018-05-08T11:13:30.671Z,1.77
2018-05-08T11:15:59.037Z,1.93
2018-05-08T11:18:27.338Z,1.80
2018-05-08T11:20:55.717Z,2.10
2018-05-08T11:23:23.992Z,1.67
2018-05-08T11:25:52.375Z,1.90
2018-05-08T11:28:20.683Z,1.70
2018-05-08T11:30:49.057Z,1.77
2018-05-08T11:33:17.729Z,1.70
2018-05-08T11:35:46.062Z,1.87
2018-05-08T11:38:14.507Z,1.80
2018-05-08T11:40:42.852Z,1.93
2018-05-08T11:43:11.164Z,1.90
2018-05-08T11:45:39.490Z,2.20
2018-05-08T11:48:07.866Z,1.70
2018-05-08T11:50:36.205Z,2.00
2018-05-08T11:53:04.546Z,1.73
2018-05-08T11:55:32.865Z,2.00
2018-05-08T11:58:01.167Z,1.83
2018-05-08T12:00:29.454Z,1.90
2018-05-08T12:02:57.795Z,1.57
2018-05-08T12:05:26.111Z,1.90
2018-05-08T12:07:54.498Z,1.40
2018-05-08T12:10:22.790Z,2.10
2018-05-08T12:12:51.166Z,1.90
2018-05-08T12:15:19.521Z,1.73
2018-05-08T12:17:47.899Z,2.00
2018-05-08T12:20:16.234Z,1.80
2018-05-08T12:22:44.494Z,2.30
2018-05-08T12:25:12.821Z,2.00
2018-05-08T12:27:41.090Z,2.20
2018-05-08T12:30:09.387Z,1.97
2018-05-08T12:32:37.755Z,2.47
2018-05-08T12:35:06.107Z,1.60
2018-05-08T12:37:34.671Z,1.77
2018-05-08T12:40:03.087Z,2.17
2018-05-08T12:42:31.376Z,2.00
2018-05-08T12:44:59.778Z,1.80
2018-05-08T12:47:28.269Z,1.80
2018-05-08T12:49:56.862Z,1.77
2018-05-08T12:52:25.207Z,2.07
2018-05-08T12:54:53.806Z,1.80
2018-05-08T12:57:22.170Z,1.53
2018-05-08T12:59:50.549Z,1.50
2018-05-08T13:02:19.336Z,1.80
2018-05-08T13:04:47.647Z,1.80
2018-05-08T13:07:16.016Z,2.10
2018-05-08T13:09:44.323Z,2.00
2018-05-08T13:12:12.612Z,1.70
2018-05-08T13:14:41.164Z,1.70
2018-05-08T13:17:09.707Z,1.77
2018-05-08T13:19:39.176Z,2.13
2018-05-08T13:22:07.539Z,1.80
2018-05-08T13:24:35.880Z,1.80
2018-05-08T13:27:04.235Z,1.60
2018-05-08T13:29:32.626Z,2.30
2018-05-08T13:32:00.946Z,1.97
2018-05-08T13:34:29.299Z,1.90
2018-05-08T13:36:57.975Z,1.70
2018-05-08T13:39:26.783Z,2.20
2018-05-08T13:41:55.155Z,1.80
2018-05-08T13:44:23.627Z,1.77
2018-05-08T13:46:51.936Z,1.70
2018-05-08T13:49:20.310Z,2.00
2018-05-08T13:51:48.613Z,1.80
2018-05-08T13:54:17.215Z,1.90
2018-05-08T13:56:45.686Z,2.63
2018-05-08T13:59:14.212Z,1.93
2018-05-08T14:01:42.650Z,2.07
2018-05-08T14:04:11.805Z,1.73
2018-05-08T14:06:40.216Z,1.60
2018-05-08T14:09:08.721Z,1.70
2018-05-08T14:11:37.694Z,1.70
2018-05-08T14:14:06.226Z,2.00
2018-05-08T14:16:35.927Z,2.07
2018-05-08T14:19:04.875Z,1.37
2018-05-08T14:21:33.290Z,1.70
2018-05-08T14:24:02.414Z,1.60
2018-05-08T14:26:31.901Z,2.27
2018-05-08T14:29:01.363Z,1.60
2018-05-08T14:31:30.075Z,2.43
2018-05-08T14:33:58.302Z,1.80
2018-05-08T14:36:28.087Z,1.50
2018-05-08T14:38:57.090Z,1.77
2018-05-08T14:41:25.811Z,1.80
2018-05-08T14:43:55.076Z,1.90
2018-05-08T14:46:25.355Z,1.80
2018-05-08T14:48:53.178Z,1.87
2018-05-08T14:51:21.499Z,1.60
2018-05-08T14:53:49.913Z,2.07
2018-05-08T14:56:18.235Z,2.07
2018-05-08T14:58:46.244Z,1.87
2018-05-08T15:01:14.590Z,1.70
2018-05-08T15:06:54.953Z,1.90
2018-05-08T15:15:27.765Z,1.80
2018-05-08T16:40:16.118Z,1.93
2018-05-08T16:45:51.318Z,1.70
2018-05-08T16:48:23.404Z,1.90
2018-05-08T16:50:54.793Z,2.10
2018-05-08T16:53:25.645Z,3.50
2018-05-08T16:55:59.887Z,2.07
2018-05-08T16:58:38.202Z,1.90
2018-05-08T17:01:10.568Z,2.30
2018-05-08T17:18:57.414Z,2.40
2018-05-08T17:21:34.395Z,2.00
2018-05-08T17:24:05.884Z,2.27
2018-05-08T17:29:50.949Z,2.60
2018-05-08T17:32:21.932Z,2.37
2018-05-08T17:34:54.371Z,2.10
2018-05-08T17:37:30.532Z,1.97
2018-05-08T17:40:01.163Z,2.00
2018-05-08T17:45:37.755Z,2.27
2018-05-08T17:48:07.023Z,2.70
2018-05-08T17:50:35.551Z,2.30
2018-05-08T17:53:03.937Z,2.53
2018-05-08T17:55:32.307Z,2.00
2018-05-08T17:58:00.643Z,2.37
2018-05-08T18:00:28.271Z,1.77
2018-05-08T18:02:56.551Z,2.10
2018-05-08T18:05:24.890Z,2.07
2018-05-08T18:07:54.824Z,2.40
2018-05-08T18:10:23.171Z,2.60
2018-05-08T18:12:51.489Z,2.43
2018-05-08T20:57:13.434Z,3.10
2018-05-08T20:59:42.278Z,2.60
2018-05-08T21:02:11.644Z,2.70
2018-05-08T21:04:40.415Z,2.80
2018-05-08T21:07:09.035Z,2.95
2018-05-08T21:09:37.700Z,3.33
2018-05-08T21:12:07.475Z,3.35
2018-05-08T21:14:36.238Z,3.30
2018-05-08T21:17:05.876Z,3.30
2018-05-08T21:19:35.011Z,4.00
2018-05-08T21:22:03.871Z,2.90
2018-05-08T21:24:32.607Z,3.10
2018-05-08T21:27:01.260Z,3.25
2018-05-08T21:29:33.751Z,3.08
2018-05-08T21:32:02.947Z,3.17
2018-05-08T21:34:31.780Z,3.00
2018-05-08T21:37:00.815Z,2.75
2018-05-08T21:39:29.779Z,2.95
2018-05-08T21:41:58.690Z,3.15
2018-05-08T21:44:27.655Z,3.37
2018-05-08T21:46:56.737Z,3.08
2018-05-08T21:49:25.734Z,3.22
2018-05-08T21:51:54.490Z,3.05
2018-05-08T21:54:23.321Z,3.47
2018-05-08T21:56:52.537Z,3.35
2018-05-08T21:59:21.507Z,3.08
2018-05-08T22:01:50.435Z,3.20
2018-05-08T22:04:19.396Z,3.25
2018-05-08T22:06:48.423Z,3.40
2018-05-08T22:09:17.219Z,2.80
2018-05-08T22:11:46.610Z,3.55
2018-05-08T22:14:16.194Z,3.05
2018-05-08T22:16:46.268Z,3.20
2018-05-08T22:19:15.284Z,3.20
2018-05-08T22:21:44.457Z,3.40
2018-05-08T22:24:13.482Z,3.37
2018-05-08T22:26:42.596Z,3.60
2018-05-08T22:29:12.011Z,3.70
2018-05-08T22:31:40.467Z,3.60
2018-05-08T22:34:09.548Z,4.72
2018-05-08T22:36:40.401Z,3.62
2018-05-08T22:39:09.383Z,4.22
2018-05-08T22:41:39.105Z,3.90
2018-05-08T22:44:08.879Z,3.90
2018-05-08T22:46:37.912Z,4.40
2018-05-08T22:49:06.547Z,4.20
2018-05-08T22:51:36.567Z,3.55
2018-05-08T22:54:06.351Z,4.08
2018-05-08T22:56:35.566Z,4.40
2018-05-08T22:59:04.147Z,3.50
2018-05-08T23:01:32.780Z,3.75
2018-05-08T23:04:01.917Z,4.25
2018-05-08T23:06:31.588Z,4.40
2018-05-08T23:09:00.222Z,3.90
2018-05-08T23:11:30.293Z,4.03
2018-05-08T23:13:58.978Z,4.00
2018-05-08T23:16:29.680Z,3.83
2018-05-08T23:18:59.224Z,4.30
2018-05-08T23:21:29.190Z,4.58
2018-05-08T23:23:58.608Z,4.17
2018-05-08T23:26:27.764Z,4.12
2018-05-08T23:28:56.526Z,3.95
2018-05-08T23:31:25.214Z,4.08
2018-05-08T23:33:53.856Z,4.58
2018-05-08T23:36:22.666Z,4.62
2018-05-08T23:38:51.168Z,4.10
2018-05-08T23:41:20.074Z,3.70
2018-05-08T23:43:48.723Z,4.35
2018-05-08T23:46:17.099Z,4.67
2018-05-08T23:48:45.487Z,4.45
2018-05-08T23:51:13.819Z,5.17
2018-05-08T23:53:42.415Z,4.45
2018-05-08T23:56:10.722Z,4.22
2018-05-08T23:58:39.166Z,4.10
